Roland, Oklahoma
Current Conditions -  °F | °C
As of 11:53 PM on Tuesday 21 Oct 2014 (Local Time) from KFSM Reporting Station
Clear Clear  
Wind Chill: 61°   Ceiling: Unl
Heat Index: 61°   Visibility: 10mi
Dew Point: 58°   Wind: 6mph
Humidity: 90%   Direction: 50°NE
Pressure: 30.09"   Gusts: NA
Location:  35.42°N, 94.51°W
Report Text: KFSM 220453Z AUTO 05005KT 10SM CLR 16/14 A3009 RMK AO2 SLP187 T01610144
Loading
Personal Weather Stations






























Interactive Weather Map
Tropical Storm Tracking
New forecast layout! Learn more

10-Day Weather Forecast

Advertisements
Track Severe Weather on mobile